Terminal Aerodrome Forecast
Issued by NWS

Home | Current Version | Previous Version | Text Only | Print | Product List | Glossary On
Versions: 1 2 3 4 5 6 7 8 9 10 11 12 13 14 15 16 17
000
FTUS43 KIND 241120
TAFBMG
TAF
KBMG 241120Z 2412/2512 00000KT 1 1/2SM BR SKC
      TEMPO 2412/2413 1/2SM FG VV006
     FM241300 21004KT 4SM BR SKC
     FM241500 21004KT P6SM BKN250
     FM241800 22007KT P6SM SCT040
     FM250300 21006KT P6SM VCTS BKN050CB
      AMD LTD TO CLD VIS AND WIND TIL 241300=

USA.gov is the U.S. government's official web portal to all federal, state and local government web resources and services.